sensor_id;sensor_type;location;lat;lon;timestamp;P1;durP1;ratioP1;P2;durP2;ratioP2
7471;SDS011;3777;48.722;8.110;2023-02-28T00:01:45;5.43;;;3.93;;
7471;SDS011;3777;48.722;8.110;2023-02-28T00:04:12;4.43;;;4.00;;
7471;SDS011;3777;48.722;8.110;2023-02-28T00:06:39;5.43;;;3.83;;
7471;SDS011;3777;48.722;8.110;2023-02-28T00:09:07;4.53;;;4.03;;
7471;SDS011;3777;48.722;8.110;2023-02-28T00:11:33;4.20;;;3.80;;
7471;SDS011;3777;48.722;8.110;2023-02-28T00:14:04;4.13;;;3.73;;
7471;SDS011;3777;48.722;8.110;2023-02-28T00:16:31;4.07;;;3.67;;
7471;SDS011;3777;48.722;8.110;2023-02-28T00:18:58;5.10;;;3.97;;
7471;SDS011;3777;48.722;8.110;2023-02-28T00:21:25;4.30;;;3.90;;
7471;SDS011;3777;48.722;8.110;2023-02-28T00:23:52;4.60;;;3.83;;
7471;SDS011;3777;48.722;8.110;2023-02-28T00:26:19;4.03;;;3.63;;
7471;SDS011;3777;48.722;8.110;2023-02-28T00:28:46;5.23;;;3.83;;
7471;SDS011;3777;48.722;8.110;2023-02-28T00:31:14;5.20;;;4.37;;
7471;SDS011;3777;48.722;8.110;2023-02-28T00:33:41;4.87;;;3.67;;
7471;SDS011;3777;48.722;8.110;2023-02-28T00:36:09;5.13;;;4.00;;
7471;SDS011;3777;48.722;8.110;2023-02-28T00:38:37;4.80;;;4.40;;
7471;SDS011;3777;48.722;8.110;2023-02-28T00:41:05;4.60;;;3.97;;
7471;SDS011;3777;48.722;8.110;2023-02-28T00:43:33;5.00;;;3.93;;
7471;SDS011;3777;48.722;8.110;2023-02-28T00:46:02;5.57;;;4.47;;
7471;SDS011;3777;48.722;8.110;2023-02-28T00:48:31;4.33;;;3.93;;
7471;SDS011;3777;48.722;8.110;2023-02-28T00:50:58;5.37;;;4.10;;
7471;SDS011;3777;48.722;8.110;2023-02-28T00:53:25;4.20;;;3.83;;
7471;SDS011;3777;48.722;8.110;2023-02-28T00:55:52;4.47;;;4.07;;
7471;SDS011;3777;48.722;8.110;2023-02-28T00:58:19;4.00;;;3.60;;
7471;SDS011;3777;48.722;8.110;2023-02-28T01:00:46;4.77;;;4.20;;
7471;SDS011;3777;48.722;8.110;2023-02-28T01:03:14;6.90;;;4.47;;
7471;SDS011;3777;48.722;8.110;2023-02-28T01:05:43;6.77;;;4.80;;
7471;SDS011;3777;48.722;8.110;2023-02-28T01:08:10;5.97;;;4.17;;
7471;SDS011;3777;48.722;8.110;2023-02-28T01:10:38;5.20;;;4.30;;
7471;SDS011;3777;48.722;8.110;2023-02-28T01:13:05;6.47;;;4.57;;
7471;SDS011;3777;48.722;8.110;2023-02-28T01:15:32;4.33;;;3.80;;
7471;SDS011;3777;48.722;8.110;2023-02-28T01:17:59;4.57;;;4.17;;
7471;SDS011;3777;48.722;8.110;2023-02-28T01:20:26;5.47;;;4.50;;
7471;SDS011;3777;48.722;8.110;2023-02-28T01:22:54;5.73;;;4.20;;
7471;SDS011;3777;48.722;8.110;2023-02-28T01:25:21;6.43;;;4.90;;
7471;SDS011;3777;48.722;8.110;2023-02-28T01:27:48;6.03;;;5.10;;
7471;SDS011;3777;48.722;8.110;2023-02-28T01:30:15;5.97;;;4.93;;
7471;SDS011;3777;48.722;8.110;2023-02-28T01:32:42;9.60;;;6.40;;
7471;SDS011;3777;48.722;8.110;2023-02-28T01:35:09;6.23;;;5.00;;
7471;SDS011;3777;48.722;8.110;2023-02-28T01:37:36;5.47;;;4.60;;
7471;SDS011;3777;48.722;8.110;2023-02-28T01:40:05;5.60;;;4.57;;
7471;SDS011;3777;48.722;8.110;2023-02-28T01:42:33;4.87;;;4.37;;
7471;SDS011;3777;48.722;8.110;2023-02-28T01:45:02;6.30;;;4.77;;
7471;SDS011;3777;48.722;8.110;2023-02-28T01:47:33;5.37;;;4.57;;
7471;SDS011;3777;48.722;8.110;2023-02-28T01:50:06;5.63;;;4.80;;
7471;SDS011;3777;48.722;8.110;2023-02-28T01:52:36;5.70;;;5.07;;
7471;SDS011;3777;48.722;8.110;2023-02-28T01:55:05;4.63;;;4.23;;
7471;SDS011;3777;48.722;8.110;2023-02-28T01:57:35;6.73;;;4.67;;
7471;SDS011;3777;48.722;8.110;2023-02-28T02:00:06;5.83;;;4.80;;
7471;SDS011;3777;48.722;8.110;2023-02-28T02:02:36;6.80;;;4.60;;
7471;SDS011;3777;48.722;8.110;2023-02-28T02:05:04;7.27;;;4.60;;
7471;SDS011;3777;48.722;8.110;2023-02-28T02:07:35;8.23;;;5.10;;
7471;SDS011;3777;48.722;8.110;2023-02-28T02:10:06;5.83;;;5.07;;
7471;SDS011;3777;48.722;8.110;2023-02-28T02:12:48;5.40;;;4.83;;
7471;SDS011;3777;48.722;8.110;2023-02-28T02:15:28;5.30;;;4.70;;
7471;SDS011;3777;48.722;8.110;2023-02-28T02:18:02;4.73;;;4.27;;
7471;SDS011;3777;48.722;8.110;2023-02-28T02:26:59;5.37;;;4.87;;
7471;SDS011;3777;48.722;8.110;2023-02-28T02:29:47;5.57;;;4.53;;
7471;SDS011;3777;48.722;8.110;2023-02-28T02:32:52;7.57;;;5.00;;
7471;SDS011;3777;48.722;8.110;2023-02-28T02:35:37;6.83;;;4.63;;
7471;SDS011;3777;48.722;8.110;2023-02-28T02:38:10;6.47;;;4.80;;
7471;SDS011;3777;48.722;8.110;2023-02-28T02:40:46;5.30;;;4.83;;
7471;SDS011;3777;48.722;8.110;2023-02-28T02:43:22;6.10;;;5.10;;
7471;SDS011;3777;48.722;8.110;2023-02-28T02:45:55;5.70;;;4.70;;
7471;SDS011;3777;48.722;8.110;2023-02-28T02:48:25;5.17;;;4.53;;
7471;SDS011;3777;48.722;8.110;2023-02-28T02:50:56;5.80;;;4.90;;
7471;SDS011;3777;48.722;8.110;2023-02-28T02:53:27;4.97;;;4.40;;
7471;SDS011;3777;48.722;8.110;2023-02-28T02:55:58;6.60;;;5.20;;
7471;SDS011;3777;48.722;8.110;2023-02-28T02:58:27;6.63;;;4.47;;
7471;SDS011;3777;48.722;8.110;2023-02-28T03:00:58;5.57;;;5.07;;
7471;SDS011;3777;48.722;8.110;2023-02-28T03:03:28;5.77;;;5.20;;
7471;SDS011;3777;48.722;8.110;2023-02-28T03:05:59;6.83;;;5.20;;
7471;SDS011;3777;48.722;8.110;2023-02-28T03:08:27;5.90;;;4.80;;
7471;SDS011;3777;48.722;8.110;2023-02-28T03:10:56;5.43;;;4.67;;
7471;SDS011;3777;48.722;8.110;2023-02-28T03:16:35;5.23;;;4.73;;
7471;SDS011;3777;48.722;8.110;2023-02-28T03:19:13;5.30;;;4.80;;
7471;SDS011;3777;48.722;8.110;2023-02-28T03:21:56;5.20;;;4.43;;
7471;SDS011;3777;48.722;8.110;2023-02-28T03:24:31;6.10;;;5.10;;
7471;SDS011;3777;48.722;8.110;2023-02-28T03:27:03;5.27;;;4.77;;
7471;SDS011;3777;48.722;8.110;2023-02-28T03:29:35;7.00;;;5.17;;
7471;SDS011;3777;48.722;8.110;2023-02-28T03:32:06;6.97;;;5.40;;
7471;SDS011;3777;48.722;8.110;2023-02-28T03:34:42;5.87;;;5.30;;
7471;SDS011;3777;48.722;8.110;2023-02-28T03:37:14;5.50;;;4.90;;
7471;SDS011;3777;48.722;8.110;2023-02-28T03:39:45;6.47;;;4.97;;
7471;SDS011;3777;48.722;8.110;2023-02-28T03:42:15;5.90;;;5.20;;
7471;SDS011;3777;48.722;8.110;2023-02-28T03:44:48;6.40;;;5.40;;
7471;SDS011;3777;48.722;8.110;2023-02-28T03:47:20;5.77;;;5.17;;
7471;SDS011;3777;48.722;8.110;2023-02-28T03:49:51;5.70;;;5.10;;
7471;SDS011;3777;48.722;8.110;2023-02-28T03:52:23;6.00;;;5.00;;
7471;SDS011;3777;48.722;8.110;2023-02-28T03:54:54;6.53;;;5.77;;
7471;SDS011;3777;48.722;8.110;2023-02-28T03:57:30;5.50;;;5.00;;
7471;SDS011;3777;48.722;8.110;2023-02-28T04:00:04;6.83;;;5.83;;
7471;SDS011;3777;48.722;8.110;2023-02-28T04:02:34;5.50;;;5.00;;
7471;SDS011;3777;48.722;8.110;2023-02-28T04:05:02;7.07;;;5.73;;
7471;SDS011;3777;48.722;8.110;2023-02-28T04:07:30;6.27;;;5.67;;
7471;SDS011;3777;48.722;8.110;2023-02-28T04:09:57;10.67;;;6.30;;
7471;SDS011;3777;48.722;8.110;2023-02-28T04:12:25;6.77;;;6.07;;
7471;SDS011;3777;48.722;8.110;2023-02-28T04:14:52;7.30;;;5.53;;
7471;SDS011;3777;48.722;8.110;2023-02-28T04:17:22;6.33;;;5.70;;
7471;SDS011;3777;48.722;8.110;2023-02-28T04:19:49;6.50;;;5.83;;
7471;SDS011;3777;48.722;8.110;2023-02-28T04:22:16;8.70;;;7.10;;
7471;SDS011;3777;48.722;8.110;2023-02-28T04:24:44;16.97;;;11.20;;
7471;SDS011;3777;48.722;8.110;2023-02-28T04:27:11;13.70;;;10.07;;
7471;SDS011;3777;48.722;8.110;2023-02-28T04:29:40;6.93;;;6.23;;
7471;SDS011;3777;48.722;8.110;2023-02-28T04:32:09;7.43;;;5.83;;
7471;SDS011;3777;48.722;8.110;2023-02-28T04:34:36;8.03;;;6.50;;
7471;SDS011;3777;48.722;8.110;2023-02-28T04:37:04;6.87;;;5.90;;
7471;SDS011;3777;48.722;8.110;2023-02-28T04:39:34;7.27;;;6.43;;
7471;SDS011;3777;48.722;8.110;2023-02-28T04:42:03;5.97;;;5.37;;
7471;SDS011;3777;48.722;8.110;2023-02-28T04:44:30;7.13;;;6.03;;
7471;SDS011;3777;48.722;8.110;2023-02-28T04:46:57;6.43;;;5.80;;
7471;SDS011;3777;48.722;8.110;2023-02-28T04:49:24;6.70;;;6.00;;
7471;SDS011;3777;48.722;8.110;2023-02-28T04:51:51;6.93;;;5.70;;
7471;SDS011;3777;48.722;8.110;2023-02-28T04:54:18;6.63;;;5.90;;
7471;SDS011;3777;48.722;8.110;2023-02-28T04:56:45;7.27;;;6.30;;
7471;SDS011;3777;48.722;8.110;2023-02-28T04:59:16;7.37;;;5.73;;
7471;SDS011;3777;48.722;8.110;2023-02-28T05:01:45;7.10;;;6.40;;
7471;SDS011;3777;48.722;8.110;2023-02-28T05:04:13;6.23;;;5.60;;
7471;SDS011;3777;48.722;8.110;2023-02-28T05:06:40;6.90;;;5.70;;
7471;SDS011;3777;48.722;8.110;2023-02-28T05:09:07;7.10;;;5.77;;
7471;SDS011;3777;48.722;8.110;2023-02-28T05:11:36;7.90;;;6.07;;
7471;SDS011;3777;48.722;8.110;2023-02-28T05:14:05;8.17;;;5.50;;
7471;SDS011;3777;48.722;8.110;2023-02-28T05:16:34;7.53;;;5.97;;
7471;SDS011;3777;48.722;8.110;2023-02-28T05:19:01;6.77;;;5.67;;
7471;SDS011;3777;48.722;8.110;2023-02-28T05:21:29;7.23;;;6.17;;
7471;SDS011;3777;48.722;8.110;2023-02-28T05:23:59;7.97;;;6.93;;
7471;SDS011;3777;48.722;8.110;2023-02-28T05:26:28;7.17;;;6.47;;
7471;SDS011;3777;48.722;8.110;2023-02-28T05:28:55;7.43;;;6.50;;
7471;SDS011;3777;48.722;8.110;2023-02-28T05:31:22;7.57;;;6.60;;
7471;SDS011;3777;48.722;8.110;2023-02-28T05:33:51;10.07;;;6.90;;
7471;SDS011;3777;48.722;8.110;2023-02-28T05:36:18;7.33;;;6.63;;
7471;SDS011;3777;48.722;8.110;2023-02-28T05:38:46;8.03;;;6.47;;
7471;SDS011;3777;48.722;8.110;2023-02-28T05:41:14;7.80;;;6.67;;
7471;SDS011;3777;48.722;8.110;2023-02-28T05:43:41;8.07;;;6.40;;
7471;SDS011;3777;48.722;8.110;2023-02-28T05:46:09;8.20;;;6.63;;
7471;SDS011;3777;48.722;8.110;2023-02-28T05:48:38;7.07;;;6.37;;
7471;SDS011;3777;48.722;8.110;2023-02-28T05:51:07;7.90;;;6.77;;
7471;SDS011;3777;48.722;8.110;2023-02-28T05:53:35;7.30;;;6.60;;
7471;SDS011;3777;48.722;8.110;2023-02-28T05:56:02;8.47;;;6.63;;
7471;SDS011;3777;48.722;8.110;2023-02-28T05:58:30;9.80;;;8.47;;
7471;SDS011;3777;48.722;8.110;2023-02-28T06:00:57;10.30;;;7.40;;
7471;SDS011;3777;48.722;8.110;2023-02-28T06:03:24;8.60;;;6.90;;
7471;SDS011;3777;48.722;8.110;2023-02-28T06:05:52;10.00;;;7.03;;
7471;SDS011;3777;48.722;8.110;2023-02-28T06:08:20;10.37;;;8.83;;
7471;SDS011;3777;48.722;8.110;2023-02-28T06:10:47;9.43;;;7.20;;
7471;SDS011;3777;48.722;8.110;2023-02-28T06:13:14;8.73;;;7.17;;
7471;SDS011;3777;48.722;8.110;2023-02-28T06:15:41;8.20;;;6.87;;
7471;SDS011;3777;48.722;8.110;2023-02-28T06:18:08;7.67;;;6.60;;
7471;SDS011;3777;48.722;8.110;2023-02-28T06:20:35;9.97;;;7.30;;
7471;SDS011;3777;48.722;8.110;2023-02-28T06:23:02;8.50;;;7.07;;
7471;SDS011;3777;48.722;8.110;2023-02-28T06:25:30;9.33;;;7.33;;
7471;SDS011;3777;48.722;8.110;2023-02-28T06:27:57;10.70;;;7.40;;
7471;SDS011;3777;48.722;8.110;2023-02-28T06:30:27;8.40;;;7.13;;
7471;SDS011;3777;48.722;8.110;2023-02-28T06:32:56;8.10;;;6.97;;
7471;SDS011;3777;48.722;8.110;2023-02-28T06:35:23;9.50;;;7.13;;
7471;SDS011;3777;48.722;8.110;2023-02-28T06:37:50;8.80;;;7.27;;
7471;SDS011;3777;48.722;8.110;2023-02-28T06:40:17;9.03;;;7.60;;
7471;SDS011;3777;48.722;8.110;2023-02-28T06:42:45;8.13;;;6.57;;
7471;SDS011;3777;48.722;8.110;2023-02-28T06:45:12;10.10;;;7.77;;
7471;SDS011;3777;48.722;8.110;2023-02-28T06:47:40;10.20;;;7.13;;
7471;SDS011;3777;48.722;8.110;2023-02-28T06:50:09;8.90;;;7.33;;
7471;SDS011;3777;48.722;8.110;2023-02-28T06:52:37;8.80;;;7.03;;
7471;SDS011;3777;48.722;8.110;2023-02-28T06:55:05;10.47;;;7.10;;
7471;SDS011;3777;48.722;8.110;2023-02-28T06:57:33;9.03;;;7.13;;
7471;SDS011;3777;48.722;8.110;2023-02-28T07:00:03;10.50;;;7.37;;
7471;SDS011;3777;48.722;8.110;2023-02-28T07:02:32;8.73;;;7.20;;
7471;SDS011;3777;48.722;8.110;2023-02-28T07:04:59;8.83;;;7.03;;
7471;SDS011;3777;48.722;8.110;2023-02-28T07:07:26;9.90;;;7.23;;
7471;SDS011;3777;48.722;8.110;2023-02-28T07:09:53;8.13;;;7.27;;
7471;SDS011;3777;48.722;8.110;2023-02-28T07:12:20;9.23;;;7.50;;
7471;SDS011;3777;48.722;8.110;2023-02-28T07:14:47;8.63;;;7.37;;
7471;SDS011;3777;48.722;8.110;2023-02-28T07:17:15;9.50;;;7.57;;
7471;SDS011;3777;48.722;8.110;2023-02-28T07:19:42;10.53;;;7.20;;
7471;SDS011;3777;48.722;8.110;2023-02-28T07:22:09;10.27;;;7.33;;
7471;SDS011;3777;48.722;8.110;2023-02-28T07:24:36;8.93;;;7.27;;
7471;SDS011;3777;48.722;8.110;2023-02-28T07:27:03;8.07;;;7.17;;
7471;SDS011;3777;48.722;8.110;2023-02-28T07:29:30;8.27;;;7.07;;
7471;SDS011;3777;48.722;8.110;2023-02-28T07:31:57;8.80;;;7.30;;
7471;SDS011;3777;48.722;8.110;2023-02-28T07:34:25;9.23;;;7.20;;
7471;SDS011;3777;48.722;8.110;2023-02-28T07:36:53;9.00;;;7.03;;
7471;SDS011;3777;48.722;8.110;2023-02-28T07:39:20;9.73;;;7.43;;
7471;SDS011;3777;48.722;8.110;2023-02-28T07:41:47;7.60;;;6.80;;
7471;SDS011;3777;48.722;8.110;2023-02-28T07:44:14;8.93;;;7.30;;
7471;SDS011;3777;48.722;8.110;2023-02-28T07:46:41;9.03;;;6.87;;
7471;SDS011;3777;48.722;8.110;2023-02-28T07:49:08;11.00;;;7.30;;
7471;SDS011;3777;48.722;8.110;2023-02-28T07:51:37;10.53;;;7.50;;
7471;SDS011;3777;48.722;8.110;2023-02-28T07:54:04;7.73;;;6.77;;
7471;SDS011;3777;48.722;8.110;2023-02-28T07:56:31;8.43;;;7.43;;
7471;SDS011;3777;48.722;8.110;2023-02-28T07:58:58;9.43;;;7.23;;
7471;SDS011;3777;48.722;8.110;2023-02-28T08:01:26;8.53;;;6.97;;
7471;SDS011;3777;48.722;8.110;2023-02-28T08:03:53;7.77;;;6.53;;
7471;SDS011;3777;48.722;8.110;2023-02-28T08:06:23;7.43;;;6.67;;
7471;SDS011;3777;48.722;8.110;2023-02-28T08:08:52;9.73;;;6.93;;
7471;SDS011;3777;48.722;8.110;2023-02-28T08:11:21;8.20;;;6.80;;
7471;SDS011;3777;48.722;8.110;2023-02-28T08:13:48;8.33;;;6.87;;
7471;SDS011;3777;48.722;8.110;2023-02-28T08:16:15;9.53;;;7.30;;
7471;SDS011;3777;48.722;8.110;2023-02-28T08:18:46;9.27;;;7.43;;
7471;SDS011;3777;48.722;8.110;2023-02-28T08:21:14;10.90;;;7.67;;
7471;SDS011;3777;48.722;8.110;2023-02-28T08:23:41;8.20;;;6.77;;
7471;SDS011;3777;48.722;8.110;2023-02-28T08:26:09;9.67;;;7.27;;
7471;SDS011;3777;48.722;8.110;2023-02-28T08:28:36;8.83;;;7.27;;
7471;SDS011;3777;48.722;8.110;2023-02-28T08:31:08;10.70;;;7.30;;
7471;SDS011;3777;48.722;8.110;2023-02-28T08:33:36;9.40;;;7.80;;
7471;SDS011;3777;48.722;8.110;2023-02-28T08:36:04;10.27;;;7.13;;
7471;SDS011;3777;48.722;8.110;2023-02-28T08:38:32;9.43;;;7.50;;
7471;SDS011;3777;48.722;8.110;2023-02-28T08:41:00;9.17;;;7.00;;
7471;SDS011;3777;48.722;8.110;2023-02-28T08:43:29;8.63;;;7.47;;
7471;SDS011;3777;48.722;8.110;2023-02-28T08:45:56;8.80;;;7.07;;
7471;SDS011;3777;48.722;8.110;2023-02-28T08:48:23;8.50;;;7.10;;
7471;SDS011;3777;48.722;8.110;2023-02-28T08:50:56;8.57;;;7.23;;
7471;SDS011;3777;48.722;8.110;2023-02-28T08:53:24;12.77;;;9.23;;
7471;SDS011;3777;48.722;8.110;2023-02-28T08:55:57;10.90;;;8.07;;
7471;SDS011;3777;48.722;8.110;2023-02-28T08:58:25;9.00;;;7.70;;
7471;SDS011;3777;48.722;8.110;2023-02-28T09:00:53;10.23;;;8.27;;
7471;SDS011;3777;48.722;8.110;2023-02-28T09:03:21;9.37;;;7.13;;
7471;SDS011;3777;48.722;8.110;2023-02-28T09:05:51;10.73;;;8.00;;
7471;SDS011;3777;48.722;8.110;2023-02-28T09:08:19;10.27;;;8.50;;
7471;SDS011;3777;48.722;8.110;2023-02-28T09:10:46;11.83;;;9.53;;
7471;SDS011;3777;48.722;8.110;2023-02-28T09:13:13;9.10;;;7.70;;
7471;SDS011;3777;48.722;8.110;2023-02-28T09:15:40;8.57;;;7.53;;
7471;SDS011;3777;48.722;8.110;2023-02-28T09:18:09;9.93;;;7.77;;
7471;SDS011;3777;48.722;8.110;2023-02-28T09:20:37;8.30;;;7.03;;
7471;SDS011;3777;48.722;8.110;2023-02-28T09:23:04;8.77;;;7.43;;
7471;SDS011;3777;48.722;8.110;2023-02-28T09:25:31;9.37;;;7.77;;
7471;SDS011;3777;48.722;8.110;2023-02-28T09:27:59;12.27;;;8.40;;
7471;SDS011;3777;48.722;8.110;2023-02-28T09:30:26;9.60;;;7.63;;
7471;SDS011;3777;48.722;8.110;2023-02-28T09:32:53;9.03;;;7.43;;
7471;SDS011;3777;48.722;8.110;2023-02-28T09:35:25;11.23;;;7.40;;
7471;SDS011;3777;48.722;8.110;2023-02-28T09:37:52;10.67;;;7.47;;
7471;SDS011;3777;48.722;8.110;2023-02-28T09:40:20;9.10;;;7.70;;
7471;SDS011;3777;48.722;8.110;2023-02-28T09:42:51;9.83;;;7.67;;
7471;SDS011;3777;48.722;8.110;2023-02-28T09:45:22;9.60;;;7.97;;
7471;SDS011;3777;48.722;8.110;2023-02-28T09:47:53;10.30;;;7.90;;
7471;SDS011;3777;48.722;8.110;2023-02-28T09:50:28;8.70;;;7.40;;
7471;SDS011;3777;48.722;8.110;2023-02-28T09:52:59;9.40;;;7.70;;
7471;SDS011;3777;48.722;8.110;2023-02-28T09:55:31;10.17;;;7.63;;
7471;SDS011;3777;48.722;8.110;2023-02-28T09:58:04;8.30;;;7.40;;
7471;SDS011;3777;48.722;8.110;2023-02-28T10:00:40;10.53;;;7.90;;
7471;SDS011;3777;48.722;8.110;2023-02-28T10:05:58;13.70;;;8.10;;
7471;SDS011;3777;48.722;8.110;2023-02-28T10:08:33;8.93;;;7.47;;
7471;SDS011;3777;48.722;8.110;2023-02-28T10:11:08;11.27;;;8.43;;
7471;SDS011;3777;48.722;8.110;2023-02-28T10:13:41;8.63;;;7.37;;
7471;SDS011;3777;48.722;8.110;2023-02-28T10:16:28;9.80;;;7.70;;
7471;SDS011;3777;48.722;8.110;2023-02-28T10:19:01;8.63;;;7.73;;
7471;SDS011;3777;48.722;8.110;2023-02-28T10:21:34;8.83;;;7.90;;
7471;SDS011;3777;48.722;8.110;2023-02-28T10:24:04;11.00;;;8.10;;
7471;SDS011;3777;48.722;8.110;2023-02-28T10:26:41;9.33;;;7.83;;
7471;SDS011;3777;48.722;8.110;2023-02-28T10:29:10;10.00;;;8.27;;
7471;SDS011;3777;48.722;8.110;2023-02-28T10:31:37;11.07;;;8.23;;
7471;SDS011;3777;48.722;8.110;2023-02-28T10:34:05;10.70;;;8.43;;
7471;SDS011;3777;48.722;8.110;2023-02-28T10:36:33;10.87;;;8.07;;
7471;SDS011;3777;48.722;8.110;2023-02-28T10:39:00;9.90;;;8.23;;
7471;SDS011;3777;48.722;8.110;2023-02-28T10:41:28;10.17;;;7.60;;
7471;SDS011;3777;48.722;8.110;2023-02-28T10:44:12;11.33;;;8.50;;
7471;SDS011;3777;48.722;8.110;2023-02-28T10:46:43;10.33;;;7.90;;
7471;SDS011;3777;48.722;8.110;2023-02-28T10:49:15;9.67;;;8.67;;
7471;SDS011;3777;48.722;8.110;2023-02-28T10:51:47;11.73;;;9.30;;
7471;SDS011;3777;48.722;8.110;2023-02-28T10:54:18;10.43;;;8.50;;
7471;SDS011;3777;48.722;8.110;2023-02-28T10:59:35;10.83;;;9.13;;
7471;SDS011;3777;48.722;8.110;2023-02-28T11:02:08;12.23;;;9.00;;
7471;SDS011;3777;48.722;8.110;2023-02-28T11:04:58;11.13;;;8.70;;
7471;SDS011;3777;48.722;8.110;2023-02-28T11:07:26;9.90;;;8.27;;
7471;SDS011;3777;48.722;8.110;2023-02-28T11:09:54;14.23;;;8.90;;
7471;SDS011;3777;48.722;8.110;2023-02-28T11:12:23;11.23;;;9.40;;
7471;SDS011;3777;48.722;8.110;2023-02-28T11:14:53;10.07;;;8.20;;
7471;SDS011;3777;48.722;8.110;2023-02-28T11:17:23;11.73;;;9.13;;
7471;SDS011;3777;48.722;8.110;2023-02-28T11:19:53;11.90;;;9.33;;
7471;SDS011;3777;48.722;8.110;2023-02-28T11:22:23;11.57;;;8.80;;
7471;SDS011;3777;48.722;8.110;2023-02-28T11:24:55;13.50;;;9.60;;
7471;SDS011;3777;48.722;8.110;2023-02-28T11:27:39;10.93;;;9.03;;
7471;SDS011;3777;48.722;8.110;2023-02-28T11:30:26;12.30;;;9.33;;
7471;SDS011;3777;48.722;8.110;2023-02-28T11:32:54;10.60;;;8.63;;
7471;SDS011;3777;48.722;8.110;2023-02-28T11:35:23;14.07;;;10.70;;
7471;SDS011;3777;48.722;8.110;2023-02-28T11:37:54;11.63;;;9.00;;
7471;SDS011;3777;48.722;8.110;2023-02-28T11:40:26;10.47;;;8.97;;
7471;SDS011;3777;48.722;8.110;2023-02-28T11:43:00;12.63;;;10.97;;
7471;SDS011;3777;48.722;8.110;2023-02-28T11:45:40;13.67;;;11.70;;
7471;SDS011;3777;48.722;8.110;2023-02-28T11:48:21;12.20;;;10.70;;
7471;SDS011;3777;48.722;8.110;2023-02-28T11:50:54;17.73;;;10.90;;
7471;SDS011;3777;48.722;8.110;2023-02-28T11:53:35;13.37;;;9.73;;
7471;SDS011;3777;48.722;8.110;2023-02-28T11:56:13;12.20;;;9.40;;
7471;SDS011;3777;48.722;8.110;2023-02-28T11:58:49;10.83;;;9.13;;
7471;SDS011;3777;48.722;8.110;2023-02-28T12:01:28;11.53;;;9.37;;
7471;SDS011;3777;48.722;8.110;2023-02-28T12:04:10;10.30;;;8.80;;
7471;SDS011;3777;48.722;8.110;2023-02-28T12:06:45;12.43;;;9.20;;
7471;SDS011;3777;48.722;8.110;2023-02-28T12:09:23;10.03;;;9.03;;
7471;SDS011;3777;48.722;8.110;2023-02-28T12:12:02;10.10;;;8.90;;
7471;SDS011;3777;48.722;8.110;2023-02-28T12:17:48;10.60;;;8.67;;
7471;SDS011;3777;48.722;8.110;2023-02-28T12:20:25;12.00;;;8.57;;
7471;SDS011;3777;48.722;8.110;2023-02-28T12:23:02;12.33;;;8.73;;
7471;SDS011;3777;48.722;8.110;2023-02-28T12:25:47;11.13;;;9.23;;
7471;SDS011;3777;48.722;8.110;2023-02-28T12:28:28;11.00;;;8.63;;
7471;SDS011;3777;48.722;8.110;2023-02-28T12:31:00;11.10;;;9.37;;
7471;SDS011;3777;48.722;8.110;2023-02-28T12:33:32;10.77;;;9.20;;
7471;SDS011;3777;48.722;8.110;2023-02-28T12:36:03;10.17;;;8.80;;
7471;SDS011;3777;48.722;8.110;2023-02-28T12:38:38;11.73;;;9.67;;
7471;SDS011;3777;48.722;8.110;2023-02-28T12:41:10;13.33;;;10.90;;
7471;SDS011;3777;48.722;8.110;2023-02-28T12:43:42;15.17;;;10.83;;
7471;SDS011;3777;48.722;8.110;2023-02-28T12:46:12;14.83;;;9.90;;
7471;SDS011;3777;48.722;8.110;2023-02-28T12:48:46;11.67;;;8.90;;
7471;SDS011;3777;48.722;8.110;2023-02-28T12:51:17;11.43;;;9.80;;
7471;SDS011;3777;48.722;8.110;2023-02-28T12:53:49;11.47;;;9.13;;
7471;SDS011;3777;48.722;8.110;2023-02-28T12:56:21;11.43;;;9.53;;
7471;SDS011;3777;48.722;8.110;2023-02-28T12:58:58;10.90;;;8.40;;
7471;SDS011;3777;48.722;8.110;2023-02-28T13:01:36;10.40;;;9.27;;
7471;SDS011;3777;48.722;8.110;2023-02-28T13:10:24;10.97;;;8.80;;
7471;SDS011;3777;48.722;8.110;2023-02-28T13:12:53;11.37;;;8.87;;
7471;SDS011;3777;48.722;8.110;2023-02-28T13:15:24;11.13;;;9.23;;
7471;SDS011;3777;48.722;8.110;2023-02-28T13:17:54;11.90;;;9.57;;
7471;SDS011;3777;48.722;8.110;2023-02-28T13:20:23;13.00;;;10.50;;
7471;SDS011;3777;48.722;8.110;2023-02-28T13:22:52;10.57;;;8.77;;
7471;SDS011;3777;48.722;8.110;2023-02-28T13:31:30;11.33;;;8.93;;
7471;SDS011;3777;48.722;8.110;2023-02-28T13:34:06;11.67;;;8.83;;
7471;SDS011;3777;48.722;8.110;2023-02-28T13:36:40;10.37;;;8.70;;
7471;SDS011;3777;48.722;8.110;2023-02-28T13:42:22;11.27;;;8.97;;
7471;SDS011;3777;48.722;8.110;2023-02-28T13:47:55;11.63;;;8.90;;
7471;SDS011;3777;48.722;8.110;2023-02-28T13:50:29;13.80;;;10.10;;
7471;SDS011;3777;48.722;8.110;2023-02-28T13:56:21;10.33;;;9.20;;
7471;SDS011;3777;48.722;8.110;2023-02-28T13:58:58;10.87;;;9.13;;
7471;SDS011;3777;48.722;8.110;2023-02-28T14:01:37;12.03;;;9.80;;
7471;SDS011;3777;48.722;8.110;2023-02-28T14:07:18;11.33;;;9.43;;
7471;SDS011;3777;48.722;8.110;2023-02-28T14:09:51;10.47;;;9.00;;
7471;SDS011;3777;48.722;8.110;2023-02-28T14:15:26;11.97;;;9.30;;
7471;SDS011;3777;48.722;8.110;2023-02-28T14:18:16;11.27;;;9.07;;
7471;SDS011;3777;48.722;8.110;2023-02-28T14:20:48;10.73;;;8.60;;
7471;SDS011;3777;48.722;8.110;2023-02-28T14:23:23;10.90;;;9.20;;
7471;SDS011;3777;48.722;8.110;2023-02-28T14:26:12;10.13;;;9.03;;
7471;SDS011;3777;48.722;8.110;2023-02-28T14:28:49;14.63;;;11.13;;
7471;SDS011;3777;48.722;8.110;2023-02-28T14:31:28;13.37;;;9.90;;
7471;SDS011;3777;48.722;8.110;2023-02-28T14:34:05;10.73;;;9.50;;
7471;SDS011;3777;48.722;8.110;2023-02-28T14:36:48;14.53;;;9.90;;
7471;SDS011;3777;48.722;8.110;2023-02-28T14:39:16;10.43;;;9.27;;
7471;SDS011;3777;48.722;8.110;2023-02-28T14:41:48;10.40;;;9.30;;
7471;SDS011;3777;48.722;8.110;2023-02-28T14:44:16;12.17;;;9.73;;
7471;SDS011;3777;48.722;8.110;2023-02-28T14:46:45;11.20;;;9.63;;
7471;SDS011;3777;48.722;8.110;2023-02-28T14:49:16;11.87;;;9.33;;
7471;SDS011;3777;48.722;8.110;2023-02-28T14:51:45;14.50;;;10.10;;
7471;SDS011;3777;48.722;8.110;2023-02-28T14:54:15;12.33;;;9.83;;
7471;SDS011;3777;48.722;8.110;2023-02-28T14:56:49;13.80;;;10.23;;
7471;SDS011;3777;48.722;8.110;2023-02-28T14:59:27;10.60;;;8.67;;
7471;SDS011;3777;48.722;8.110;2023-02-28T15:02:18;10.60;;;9.00;;
7471;SDS011;3777;48.722;8.110;2023-02-28T15:04:53;11.10;;;9.10;;
7471;SDS011;3777;48.722;8.110;2023-02-28T15:07:23;12.03;;;9.03;;
7471;SDS011;3777;48.722;8.110;2023-02-28T15:10:09;12.37;;;9.53;;
7471;SDS011;3777;48.722;8.110;2023-02-28T15:12:39;14.17;;;9.50;;
7471;SDS011;3777;48.722;8.110;2023-02-28T15:15:14;11.30;;;9.23;;
7471;SDS011;3777;48.722;8.110;2023-02-28T15:17:42;11.63;;;9.53;;
7471;SDS011;3777;48.722;8.110;2023-02-28T15:20:12;11.33;;;10.13;;
7471;SDS011;3777;48.722;8.110;2023-02-28T15:22:42;11.27;;;9.50;;
7471;SDS011;3777;48.722;8.110;2023-02-28T15:25:13;13.97;;;11.30;;
7471;SDS011;3777;48.722;8.110;2023-02-28T15:27:45;13.53;;;10.17;;
7471;SDS011;3777;48.722;8.110;2023-02-28T15:30:15;13.47;;;9.77;;
7471;SDS011;3777;48.722;8.110;2023-02-28T15:32:44;11.33;;;9.93;;
7471;SDS011;3777;48.722;8.110;2023-02-28T15:35:19;12.57;;;10.17;;
7471;SDS011;3777;48.722;8.110;2023-02-28T15:37:54;12.53;;;10.40;;
7471;SDS011;3777;48.722;8.110;2023-02-28T15:40:23;12.57;;;9.73;;
7471;SDS011;3777;48.722;8.110;2023-02-28T15:43:00;12.27;;;9.70;;
7471;SDS011;3777;48.722;8.110;2023-02-28T15:45:35;12.90;;;10.47;;
7471;SDS011;3777;48.722;8.110;2023-02-28T15:48:06;14.17;;;9.43;;
7471;SDS011;3777;48.722;8.110;2023-02-28T15:50:43;13.73;;;10.30;;
7471;SDS011;3777;48.722;8.110;2023-02-28T15:53:16;15.30;;;10.43;;
7471;SDS011;3777;48.722;8.110;2023-02-28T15:55:45;11.63;;;10.10;;
7471;SDS011;3777;48.722;8.110;2023-02-28T15:58:21;12.37;;;10.47;;
7471;SDS011;3777;48.722;8.110;2023-02-28T16:00:59;19.57;;;9.83;;
7471;SDS011;3777;48.722;8.110;2023-02-28T16:03:35;10.97;;;9.77;;
7471;SDS011;3777;48.722;8.110;2023-02-28T16:06:24;12.70;;;10.37;;
7471;SDS011;3777;48.722;8.110;2023-02-28T16:09:02;13.10;;;10.17;;
7471;SDS011;3777;48.722;8.110;2023-02-28T16:11:32;14.97;;;10.83;;
7471;SDS011;3777;48.722;8.110;2023-02-28T16:14:01;11.23;;;10.03;;
7471;SDS011;3777;48.722;8.110;2023-02-28T16:16:28;12.80;;;10.70;;